Charles B. Wheeler Downtown Airport
KMKC : now visible

Airfield :











YOU CAN JOIN US ON...

 
LOGIN :

Register | Disclaimer

   EN    FR    IT 

 









Legend :    VFR   Marginal VFR   IFR   Intensive IFR   Very Intensive IFR
Visi :
Ceiling :
>= 8 km
>= 3000ft
5 to 8 km
1000 to 3000 ft
1500m to 5 km
500 to 1000 ft
800 to 1500m
200 to 500 ft
< 800m
< 200 ft
Symbols :   Thunderstorms  Fog  Heavy snow  Heavy precipitations  Wind > 20 kt






- Airport Elevation : 759 ft
- IATA code : MKC


KMKC - Charles B. Wheeler Downtown

CURRENT METAR :
  • 181754Z 30013G24KT 10SM CLR M03/M10 A3029 RMK AO2 PK WND 30027/1718 SLP263 T10281100 10028 21044 50034

EXPIRED METARs :
  • 181654Z 28014G21KT 10SM CLR M03/M10 A3029 RMK AO2 PK WND 28029/1558 SLP264 T10331100 $
  • 181554Z 30019G29KT 10SM CLR M04/M10 A3024 RMK AO2 PK WND 31030/1523 SLP249 T10441100 $
  • 181530Z 30018G30KT 10SM SCT023 M04/M10 A3023 RMK AO2 PK WND 31030/1523 PRESRR T10441100 $

TAF KMKC
Valid from the 18 at 18:00 until the 19 at 18:00 UTC


181720Z 1818/1918 31020G30KT P6SM SCT250
FM190000 32010KT P6SM SKC



MET'MAP, your aeronautical weather chart ! - Copyright ORBIFLY December 2007 - Disclaimer

ORBIFLY MET'MAP TEAM :

Programming & Development : Alexandra Zaïnal
Concept & original design : Baudouin d'Aumeries
Assistance for programming : Marc-Olivier Méhu
Technical & hardware support : Manuel Goepfert

Contact : metmap@orbifly.com




SOURCES & CREDITS :

   NOAA       Earth
Advisory